Time;durP1;ratioP1;P1;durP2;ratioP2;P2;SDS_P1;SDS_P2;PMS_P1;PMS_P2;Temp;Humidity;BMP_temperature;BMP_pressure;BME280_temperature;BME280_humidity;BME280_pressure;Samples;Min_cycle;Max_cycle;Signal;HPM_P1;HPM_P2
2022/07/30 00:00:26;;;;;;;0.97;0.80;;;;;;;;;;5039425;28;92075;-49
2022/07/30 00:02:54;;;;;;;1.43;0.90;;;;;;;;;;5039197;28;92047;-49
2022/07/30 00:05:22;;;;;;;1.27;0.80;;;;;;;;;;5038801;28;95297;-50
2022/07/30 00:07:51;;;;;;;1.20;1.03;;;;;;;;;;5038999;28;95079;-50
2022/07/30 00:10:21;;;;;;;1.53;1.10;;;;;;;;;;5039349;28;92084;-49
2022/07/30 00:12:50;;;;;;;2.33;1.17;;;;;;;;;;5039169;28;91992;-48
2022/07/30 00:15:18;;;;;;;1.67;1.37;;;;;;;;;;5038416;28;94434;-49
2022/07/30 00:17:46;;;;;;;3.00;1.50;;;;;;;;;;5038916;28;92931;-49
2022/07/30 00:20:16;;;;;;;2.23;1.50;;;;;;;;;;5039476;28;92059;-49
2022/07/30 00:22:45;;;;;;;5.43;2.67;;;;;;;;;;5039695;28;91348;-49
2022/07/30 00:25:14;;;;;;;4.87;2.60;;;;;;;;;;5038173;28;94309;-49
2022/07/30 00:27:44;;;;;;;3.27;1.60;;;;;;;;;;5037461;28;93065;-49
2022/07/30 00:30:12;;;;;;;4.83;2.17;;;;;;;;;;5037599;28;94191;-48
2022/07/30 00:32:41;;;;;;;3.57;1.80;;;;;;;;;;5038023;28;92311;-49
2022/07/30 00:35:10;;;;;;;3.97;2.30;;;;;;;;;;5037338;28;93245;-49
2022/07/30 00:37:38;;;;;;;4.40;2.10;;;;;;;;;;5038021;28;94167;-48
2022/07/30 00:40:07;;;;;;;5.97;2.10;;;;;;;;;;5038926;28;91913;-49
2022/07/30 00:42:39;;;;;;;4.13;2.03;;;;;;;;;;5039057;28;92088;-49
2022/07/30 00:45:09;;;;;;;10.00;2.47;;;;;;;;;;5038687;28;94159;-49
2022/07/30 00:47:37;;;;;;;3.57;1.73;;;;;;;;;;5038980;28;93978;-49
2022/07/30 00:50:06;;;;;;;4.57;2.33;;;;;;;;;;5038869;28;91922;-49
2022/07/30 00:52:35;;;;;;;3.93;2.30;;;;;;;;;;5038315;28;92479;-49
2022/07/30 00:55:03;;;;;;;4.37;1.83;;;;;;;;;;5036219;28;95160;-49
2022/07/30 00:57:32;;;;;;;4.23;1.83;;;;;;;;;;5036909;28;93713;-49
2022/07/30 01:00:01;;;;;;;5.83;2.07;;;;;;;;;;5037317;28;92372;-49
2022/07/30 01:02:31;;;;;;;2.53;1.60;;;;;;;;;;5037709;28;92146;-50
2022/07/30 01:05:00;;;;;;;5.47;1.70;;;;;;;;;;5037439;28;93174;-49
2022/07/30 01:07:28;;;;;;;4.30;2.13;;;;;;;;;;5037209;28;93995;-48
2022/07/30 01:09:56;;;;;;;3.23;1.70;;;;;;;;;;5037495;28;92025;-49
2022/07/30 01:12:25;;;;;;;2.53;1.80;;;;;;;;;;5038109;28;91349;-49
2022/07/30 01:14:54;;;;;;;2.50;2.00;;;;;;;;;;5037276;28;93625;-49
2022/07/30 01:17:22;;;;;;;3.00;1.90;;;;;;;;;;5036747;28;94030;-49
2022/07/30 01:19:52;;;;;;;2.57;1.60;;;;;;;;;;5036708;28;93088;-49
2022/07/30 01:22:22;;;;;;;3.43;1.90;;;;;;;;;;5028767;28;92395;-50
2022/07/30 01:24:56;;;;;;;2.00;1.57;;;;;;;;;;5036958;28;92895;-49
2022/07/30 01:27:25;;;;;;;3.17;1.60;;;;;;;;;;5037094;28;93964;-50
2022/07/30 01:29:54;;;;;;;2.70;1.73;;;;;;;;;;5037798;28;92203;-49
2022/07/30 01:32:23;;;;;;;4.73;1.77;;;;;;;;;;5037315;28;92138;-49
2022/07/30 01:34:51;;;;;;;3.77;1.60;;;;;;;;;;5037648;28;93629;-50
2022/07/30 01:37:19;;;;;;;3.10;1.67;;;;;;;;;;5037498;28;93972;-49
2022/07/30 01:39:48;;;;;;;3.07;1.73;;;;;;;;;;5039104;28;92168;-50
2022/07/30 01:42:16;;;;;;;2.90;1.97;;;;;;;;;;5041410;28;92127;-50
2022/07/30 01:44:46;;;;;;;4.27;1.73;;;;;;;;;;5040399;28;95085;-49
2022/07/30 01:47:14;;;;;;;1.73;1.20;;;;;;;;;;5040913;28;94897;-48
2022/07/30 01:49:42;;;;;;;2.03;1.30;;;;;;;;;;5040751;28;92026;-49
2022/07/30 01:52:11;;;;;;;3.00;1.73;;;;;;;;;;5041653;28;92087;-50
2022/07/30 01:54:39;;;;;;;1.87;1.60;;;;;;;;;;5040514;28;93285;-49
2022/07/30 01:57:07;;;;;;;2.13;1.50;;;;;;;;;;5041040;28;92803;-49
2022/07/30 01:59:36;;;;;;;2.57;1.87;;;;;;;;;;5040825;28;91996;-50
2022/07/30 02:02:05;;;;;;;1.70;1.30;;;;;;;;;;5040395;28;91377;-49
2022/07/30 02:04:33;;;;;;;1.70;1.13;;;;;;;;;;5040391;28;93343;-49
2022/07/30 02:07:04;;;;;;;2.07;1.30;;;;;;;;;;5040605;28;94054;-50
2022/07/30 02:09:34;;;;;;;1.33;1.23;;;;;;;;;;5040082;28;92988;-50
2022/07/30 02:14:50;;;;;;;2.03;1.57;;;;;;;;;;5040709;28;94191;-50
2022/07/30 02:17:21;;;;;;;1.70;1.20;;;;;;;;;;5040619;28;94291;-49
2022/07/30 02:19:57;;;;;;;1.23;0.97;;;;;;;;;;5041044;28;92715;-49
2022/07/30 02:22:26;;;;;;;2.27;1.00;;;;;;;;;;5040884;28;92092;-48
2022/07/30 02:24:55;;;;;;;2.13;1.33;;;;;;;;;;5039852;28;93295;-48
2022/07/30 02:27:24;;;;;;;3.20;1.27;;;;;;;;;;5032806;28;93065;-48
2022/07/30 02:29:52;;;;;;;4.50;2.17;;;;;;;;;;5041049;28;92080;-49
2022/07/30 02:32:24;;;;;;;4.03;1.87;;;;;;;;;;5040773;28;92012;-49
2022/07/30 02:34:56;;;;;;;4.93;1.73;;;;;;;;;;5039935;28;95045;-49
2022/07/30 02:37:24;;;;;;;2.50;1.87;;;;;;;;;;5040689;28;94803;-49
2022/07/30 02:40:11;;;;;;;3.90;2.17;;;;;;;;;;5037378;28;92265;-49
2022/07/30 02:42:40;;;;;;;3.20;1.80;;;;;;;;;;5040756;28;92185;-49
2022/07/30 02:45:08;;;;;;;2.73;2.17;;;;;;;;;;5039963;28;94200;-50
2022/07/30 02:47:38;;;;;;;2.67;2.00;;;;;;;;;;5040502;28;94077;-49
2022/07/30 02:50:07;;;;;;;3.37;2.27;;;;;;;;;;5040105;27;92127;-49
2022/07/30 02:52:35;;;;;;;2.70;2.00;;;;;;;;;;5040274;28;91337;-48
2022/07/30 02:55:04;;;;;;;2.50;2.30;;;;;;;;;;5039774;28;93961;-49
2022/07/30 02:57:32;;;;;;;4.47;2.60;;;;;;;;;;5040107;28;93935;-49
2022/07/30 03:00:00;;;;;;;3.73;2.70;;;;;;;;;;5040056;28;92886;-49
2022/07/30 03:02:29;;;;;;;4.87;3.17;;;;;;;;;;5040410;28;92086;-50
2022/07/30 03:05:00;;;;;;;5.03;3.43;;;;;;;;;;5039428;28;94223;-48
2022/07/30 03:07:28;;;;;;;7.13;3.40;;;;;;;;;;5040099;28;93995;-49
2022/07/30 03:09:56;;;;;;;5.23;3.90;;;;;;;;;;5040317;28;92098;-49
2022/07/30 03:12:27;;;;;;;7.10;5.03;;;;;;;;;;5039884;28;92112;-50
2022/07/30 03:14:55;;;;;;;7.43;4.30;;;;;;;;;;5039522;28;94068;-49
2022/07/30 03:17:23;;;;;;;9.93;5.50;;;;;;;;;;5040051;28;93965;-49
2022/07/30 03:19:51;;;;;;;9.97;5.47;;;;;;;;;;5039994;28;92019;-49
2022/07/30 03:22:21;;;;;;;8.90;5.60;;;;;;;;;;5039935;28;92090;-49
2022/07/30 03:24:49;;;;;;;10.37;5.70;;;;;;;;;;5039397;28;95231;-49
2022/07/30 03:27:18;;;;;;;11.50;6.10;;;;;;;;;;5040049;28;94498;-49
2022/07/30 03:29:46;;;;;;;9.47;5.77;;;;;;;;;;5040268;28;92058;-50
2022/07/30 03:32:14;;;;;;;10.93;6.73;;;;;;;;;;5040030;28;91965;-50
2022/07/30 03:34:45;;;;;;;10.57;7.20;;;;;;;;;;5039384;28;94283;-48
2022/07/30 03:37:14;;;;;;;10.17;6.57;;;;;;;;;;5039683;28;93878;-48
2022/07/30 03:39:43;;;;;;;10.57;7.13;;;;;;;;;;5039870;28;92019;-48
2022/07/30 03:42:12;;;;;;;11.33;7.10;;;;;;;;;;5040255;28;91392;-48
2022/07/30 03:44:40;;;;;;;10.87;7.50;;;;;;;;;;5039769;28;93342;-50
2022/07/30 03:47:08;;;;;;;11.73;7.13;;;;;;;;;;5039565;28;93949;-48
2022/07/30 03:49:36;;;;;;;10.27;6.87;;;;;;;;;;5039144;28;93006;-50
2022/07/30 03:52:05;;;;;;;12.13;7.30;;;;;;;;;;5040279;28;92140;-48
2022/07/30 03:54:33;;;;;;;10.13;6.83;;;;;;;;;;5039241;28;94181;-49
2022/07/30 03:57:03;;;;;;;9.40;6.27;;;;;;;;;;5038981;28;94013;-49
2022/07/30 03:59:32;;;;;;;13.00;7.63;;;;;;;;;;5039468;28;92154;-49
2022/07/30 04:02:01;;;;;;;10.33;6.80;;;;;;;;;;5038317;28;92059;-49
2022/07/30 04:04:34;;;;;;;11.70;6.90;;;;;;;;;;5038839;28;93238;-49
2022/07/30 04:07:03;;;;;;;10.27;6.57;;;;;;;;;;5039163;28;92894;-49
2022/07/30 04:09:31;;;;;;;8.37;6.93;;;;;;;;;;5039769;28;92163;-49
2022/07/30 04:12:00;;;;;;;10.00;6.90;;;;;;;;;;5039163;28;92002;-48
2022/07/30 04:14:33;;;;;;;10.13;6.90;;;;;;;;;;5038509;28;94100;-49
2022/07/30 04:17:03;;;;;;;8.57;6.37;;;;;;;;;;5038724;28;93905;-49
2022/07/30 04:19:33;;;;;;;13.23;7.43;;;;;;;;;;5039183;28;92056;-49
2022/07/30 04:22:01;;;;;;;8.60;6.40;;;;;;;;;;5039338;28;91976;-49
2022/07/30 04:24:30;;;;;;;8.27;6.23;;;;;;;;;;5039089;28;93011;-49
2022/07/30 04:26:59;;;;;;;8.10;5.70;;;;;;;;;;5038599;28;93973;-49
2022/07/30 04:29:27;;;;;;;6.57;4.90;;;;;;;;;;5039241;28;92088;-49
2022/07/30 04:31:57;;;;;;;8.27;5.93;;;;;;;;;;5039386;28;91464;-49
2022/07/30 04:34:25;;;;;;;6.87;5.53;;;;;;;;;;5037296;28;93215;-49
2022/07/30 04:36:53;;;;;;;9.97;5.63;;;;;;;;;;5038738;28;92868;-49
2022/07/30 04:39:22;;;;;;;6.70;5.40;;;;;;;;;;5038315;28;93013;-49
2022/07/30 04:41:50;;;;;;;8.30;5.50;;;;;;;;;;5030414;28;91958;-49
2022/07/30 04:44:18;;;;;;;8.03;5.17;;;;;;;;;;5039167;28;94156;-49
2022/07/30 04:46:47;;;;;;;8.43;4.93;;;;;;;;;;5039234;28;92574;-49
2022/07/30 04:49:16;;;;;;;5.90;4.30;;;;;;;;;;5039360;28;92087;-49
2022/07/30 04:51:45;;;;;;;8.00;4.90;;;;;;;;;;5039072;28;92087;-49
2022/07/30 04:54:14;;;;;;;8.43;5.50;;;;;;;;;;5038675;28;93337;-49
2022/07/30 04:56:43;;;;;;;7.13;5.07;;;;;;;;;;5038953;28;93825;-49
2022/07/30 04:59:21;;;;;;;5.80;4.47;;;;;;;;;;5038880;28;92059;-49
2022/07/30 05:01:49;;;;;;;5.40;3.87;;;;;;;;;;5038722;28;92132;-49
2022/07/30 05:04:19;;;;;;;5.77;3.80;;;;;;;;;;5037965;28;94030;-49
2022/07/30 05:06:47;;;;;;;10.37;4.07;;;;;;;;;;5037874;28;95017;-49
2022/07/30 05:09:16;;;;;;;4.83;3.80;;;;;;;;;;5038961;28;92092;-49
2022/07/30 05:11:50;;;;;;;6.47;3.77;;;;;;;;;;5038295;28;92058;-48
2022/07/30 05:14:18;;;;;;;3.80;3.03;;;;;;;;;;5040201;27;93213;-50
2022/07/30 05:16:46;;;;;;;4.97;3.20;;;;;;;;;;5041615;28;93940;-50
2022/07/30 05:19:15;;;;;;;5.63;3.20;;;;;;;;;;5042483;28;91813;-49
2022/07/30 05:21:44;;;;;;;5.33;3.00;;;;;;;;;;5042872;28;91357;-49
2022/07/30 05:24:13;;;;;;;5.33;3.13;;;;;;;;;;5041860;28;94529;-49
2022/07/30 05:26:41;;;;;;;6.60;3.63;;;;;;;;;;5041916;28;92971;-48
2022/07/30 05:29:09;;;;;;;5.00;3.17;;;;;;;;;;5041623;28;93084;-48
2022/07/30 05:31:47;;;;;;;3.63;2.60;;;;;;;;;;5041697;28;92118;-47
2022/07/30 05:34:15;;;;;;;2.70;1.87;;;;;;;;;;5033462;28;94174;-48
2022/07/30 05:36:45;;;;;;;2.83;2.03;;;;;;;;;;5041367;28;93840;-48
2022/07/30 05:39:13;;;;;;;3.27;2.20;;;;;;;;;;5042836;28;92045;-48
2022/07/30 05:41:41;;;;;;;3.73;2.30;;;;;;;;;;5041757;28;92069;-48
2022/07/30 05:44:10;;;;;;;2.67;2.30;;;;;;;;;;5042155;28;93340;-49
2022/07/30 05:46:38;;;;;;;1.90;1.60;;;;;;;;;;5042088;28;93844;-49
2022/07/30 05:49:07;;;;;;;2.63;1.73;;;;;;;;;;5042117;28;92450;-48
2022/07/30 05:51:35;;;;;;;1.50;1.40;;;;;;;;;;5041860;28;92011;-48
2022/07/30 05:54:05;;;;;;;1.73;1.40;;;;;;;;;;5041146;28;94065;-49
2022/07/30 05:56:33;;;;;;;2.20;1.60;;;;;;;;;;5041350;28;93759;-50
2022/07/30 05:59:01;;;;;;;2.93;1.70;;;;;;;;;;5042247;28;92109;-49
2022/07/30 06:01:30;;;;;;;3.40;1.90;;;;;;;;;;5041306;28;92037;-50
2022/07/30 06:03:58;;;;;;;4.10;2.07;;;;;;;;;;5041514;28;94096;-50
2022/07/30 06:06:26;;;;;;;1.30;1.10;;;;;;;;;;5041031;28;92734;-49
2022/07/30 06:08:55;;;;;;;1.50;1.40;;;;;;;;;;5041680;28;91857;-49
2022/07/30 06:11:24;;;;;;;2.73;1.50;;;;;;;;;;5041884;28;91289;-50
2022/07/30 06:13:53;;;;;;;3.40;1.20;;;;;;;;;;5041162;28;93209;-50
2022/07/30 06:16:21;;;;;;;1.97;1.40;;;;;;;;;;5040993;28;93963;-49
2022/07/30 06:18:49;;;;;;;1.47;1.10;;;;;;;;;;5041125;28;93027;-49
2022/07/30 06:21:18;;;;;;;1.80;1.40;;;;;;;;;;5040865;28;92099;-49
2022/07/30 06:23:46;;;;;;;3.00;1.40;;;;;;;;;;5040977;28;94199;-49
2022/07/30 06:26:14;;;;;;;1.10;1.00;;;;;;;;;;5039569;27;92846;-49
2022/07/30 06:28:44;;;;;;;1.50;1.10;;;;;;;;;;5041043;28;91771;-49
2022/07/30 06:31:13;;;;;;;1.30;1.00;;;;;;;;;;5040620;28;92091;-50
2022/07/30 06:33:42;;;;;;;2.67;1.13;;;;;;;;;;5041026;28;94121;-50
2022/07/30 06:36:10;;;;;;;1.37;1.27;;;;;;;;;;5041269;28;93856;-49
2022/07/30 06:38:41;;;;;;;0.77;0.67;;;;;;;;;;5040933;28;91936;-49
2022/07/30 06:41:10;;;;;;;0.77;0.67;;;;;;;;;;5040685;28;92100;-49
2022/07/30 06:43:38;;;;;;;0.90;0.83;;;;;;;;;;5039958;28;94270;-49
2022/07/30 06:46:08;;;;;;;1.10;1.00;;;;;;;;;;5040493;28;94790;-49
2022/07/30 06:48:37;;;;;;;2.60;1.10;;;;;;;;;;5041243;28;91939;-49
2022/07/30 06:51:05;;;;;;;1.10;1.00;;;;;;;;;;5040481;28;92089;-49
2022/07/30 06:53:33;;;;;;;1.00;0.90;;;;;;;;;;5040293;28;94134;-49
2022/07/30 06:56:09;;;;;;;2.67;1.00;;;;;;;;;;5039945;28;92781;-50
2022/07/30 06:58:38;;;;;;;1.17;1.00;;;;;;;;;;5040788;28;92232;-49
2022/07/30 07:01:07;;;;;;;0.93;0.60;;;;;;;;;;5040690;28;91247;-50
2022/07/30 07:03:38;;;;;;;0.77;0.70;;;;;;;;;;5039912;28;94218;-49
2022/07/30 07:06:08;;;;;;;1.70;0.97;;;;;;;;;;5040504;28;93868;-49
2022/07/30 07:08:37;;;;;;;0.87;0.80;;;;;;;;;;5040220;28;92968;-50
2022/07/30 07:11:05;;;;;;;0.97;0.87;;;;;;;;;;5040346;28;93433;-50
2022/07/30 07:13:33;;;;;;;0.90;0.60;;;;;;;;;;5040410;28;94183;-49
2022/07/30 07:16:02;;;;;;;1.03;0.90;;;;;;;;;;5039243;28;92092;-49
2022/07/30 07:18:31;;;;;;;0.83;0.67;;;;;;;;;;5040666;28;91935;-50
2022/07/30 07:21:00;;;;;;;0.67;0.67;;;;;;;;;;5039856;28;92002;-49
2022/07/30 07:23:28;;;;;;;1.73;0.90;;;;;;;;;;5039309;28;93175;-50
2022/07/30 07:26:10;;;;;;;0.47;0.47;;;;;;;;;;5039827;28;93724;-49
2022/07/30 07:28:39;;;;;;;0.70;0.70;;;;;;;;;;5040105;28;92179;-50
2022/07/30 07:31:08;;;;;;;1.07;0.73;;;;;;;;;;5039769;28;92097;-50
2022/07/30 07:33:38;;;;;;;1.00;0.70;;;;;;;;;;5039357;28;95057;-50
2022/07/30 07:36:06;;;;;;;0.77;0.47;;;;;;;;;;5039726;28;93776;-48
2022/07/30 07:38:35;;;;;;;1.63;0.73;;;;;;;;;;5039570;28;91938;-49
2022/07/30 07:41:04;;;;;;;1.07;0.63;;;;;;;;;;5039658;28;92144;-49
2022/07/30 07:43:32;;;;;;;0.80;0.70;;;;;;;;;;5039497;28;94342;-49
2022/07/30 07:46:01;;;;;;;0.40;0.40;;;;;;;;;;5039447;28;92867;-49
2022/07/30 07:48:29;;;;;;;0.47;0.40;;;;;;;;;;5040083;28;92133;-49
2022/07/30 07:50:59;;;;;;;0.57;0.47;;;;;;;;;;5039829;28;91335;-49
2022/07/30 07:53:28;;;;;;;1.13;0.70;;;;;;;;;;5039190;28;93180;-49
2022/07/30 07:55:56;;;;;;;1.47;0.40;;;;;;;;;;5039230;28;94036;-49
2022/07/30 07:58:24;;;;;;;0.50;0.50;;;;;;;;;;5039331;28;92874;-49
2022/07/30 08:00:54;;;;;;;0.47;0.40;;;;;;;;;;5039507;28;92145;-49
2022/07/30 08:03:22;;;;;;;0.60;0.60;;;;;;;;;;5039424;28;94177;-49
2022/07/30 08:05:51;;;;;;;1.13;0.73;;;;;;;;;;5039478;28;93245;-49
2022/07/30 08:08:35;;;;;;;2.37;0.60;;;;;;;;;;5039838;28;92106;-50
2022/07/30 08:11:05;;;;;;;1.23;0.73;;;;;;;;;;5040091;28;92118;-49
2022/07/30 08:13:33;;;;;;;0.50;0.40;;;;;;;;;;5039370;28;94235;-49
2022/07/30 08:16:19;;;;;;;0.73;0.60;;;;;;;;;;5039346;28;93961;-49
2022/07/30 08:18:47;;;;;;;0.53;0.53;;;;;;;;;;5039410;28;92054;-49
2022/07/30 08:21:16;;;;;;;0.60;0.50;;;;;;;;;;5039564;28;92212;-49
2022/07/30 08:23:45;;;;;;;1.00;0.90;;;;;;;;;;5038566;28;94068;-49
2022/07/30 08:26:14;;;;;;;0.30;0.30;;;;;;;;;;5038505;28;93774;-49
2022/07/30 08:28:44;;;;;;;0.90;0.47;;;;;;;;;;5039645;28;92063;-49
2022/07/30 08:31:12;;;;;;;0.67;0.67;;;;;;;;;;5039257;28;91918;-50
2022/07/30 08:33:41;;;;;;;0.97;0.53;;;;;;;;;;5039100;28;93260;-49
2022/07/30 08:36:09;;;;;;;1.30;0.40;;;;;;;;;;5038992;28;93860;-49
2022/07/30 08:38:38;;;;;;;1.23;0.77;;;;;;;;;;5039608;28;91913;-50
2022/07/30 08:41:07;;;;;;;0.70;0.50;;;;;;;;;;5039726;28;91324;-49
2022/07/30 08:43:36;;;;;;;0.50;0.50;;;;;;;;;;5038768;28;92951;-49
2022/07/30 08:46:05;;;;;;;0.40;0.40;;;;;;;;;;5038605;28;93857;-49
2022/07/30 08:48:33;;;;;;;0.70;0.70;;;;;;;;;;5039943;27;92959;-49
2022/07/30 08:51:02;;;;;;;0.73;0.70;;;;;;;;;;5042884;28;93168;-49
2022/07/30 08:53:30;;;;;;;0.80;0.40;;;;;;;;;;5042494;28;92083;-48
2022/07/30 08:55:58;;;;;;;1.60;0.57;;;;;;;;;;5041849;28;92883;-49
2022/07/30 08:58:30;;;;;;;0.40;0.40;;;;;;;;;;5042265;28;91935;-49
2022/07/30 09:00:58;;;;;;;1.03;0.53;;;;;;;;;;5041901;28;92041;-49
2022/07/30 09:03:26;;;;;;;0.37;0.37;;;;;;;;;;5041886;28;94229;-49
2022/07/30 09:05:55;;;;;;;0.57;0.57;;;;;;;;;;5042606;28;92827;-49
2022/07/30 09:08:23;;;;;;;0.60;0.60;;;;;;;;;;5042681;28;92063;-49
2022/07/30 09:10:51;;;;;;;0.60;0.60;;;;;;;;;;5042921;28;92019;-49
2022/07/30 09:13:24;;;;;;;0.33;0.33;;;;;;;;;;5041835;28;93940;-49
2022/07/30 09:15:53;;;;;;;0.77;0.40;;;;;;;;;;5041715;28;94946;-49
2022/07/30 09:18:28;;;;;;;0.30;0.30;;;;;;;;;;5042607;28;91962;-49
2022/07/30 09:20:56;;;;;;;0.50;0.50;;;;;;;;;;5042024;28;91981;-49
2022/07/30 09:23:25;;;;;;;2.17;0.57;;;;;;;;;;5041402;28;93455;-49
2022/07/30 09:25:53;;;;;;;2.13;0.60;;;;;;;;;;5041848;28;92832;-49
2022/07/30 09:28:28;;;;;;;0.43;0.43;;;;;;;;;;5042723;28;92112;-51
2022/07/30 09:30:57;;;;;;;0.40;0.40;;;;;;;;;;5042249;28;91354;-49
2022/07/30 09:33:32;;;;;;;0.60;0.60;;;;;;;;;;5041599;28;94183;-49
2022/07/30 09:36:01;;;;;;;0.40;0.40;;;;;;;;;;5042073;28;93698;-49
2022/07/30 09:38:30;;;;;;;0.40;0.30;;;;;;;;;;5041688;28;92986;-50
2022/07/30 09:40:59;;;;;;;0.50;0.50;;;;;;;;;;5041643;28;91976;-49
2022/07/30 09:43:44;;;;;;;0.83;0.50;;;;;;;;;;5041299;28;94212;-49
2022/07/30 09:46:14;;;;;;;2.47;0.50;;;;;;;;;;5041536;28;94322;-50
2022/07/30 09:48:43;;;;;;;0.50;0.40;;;;;;;;;;5042166;28;91932;-49
2022/07/30 09:51:11;;;;;;;0.30;0.30;;;;;;;;;;5041374;28;92064;-48
2022/07/30 09:53:55;;;;;;;1.37;0.70;;;;;;;;;;5040795;28;93126;-48
2022/07/30 09:56:25;;;;;;;0.97;0.67;;;;;;;;;;5040797;28;93925;-48
2022/07/30 09:58:57;;;;;;;1.83;0.70;;;;;;;;;;5041709;28;92176;-48
2022/07/30 10:01:27;;;;;;;1.10;1.00;;;;;;;;;;5040668;27;92146;-49
2022/07/30 10:04:23;;;;;;;1.07;0.70;;;;;;;;;;5029561;28;95659;-48
2022/07/30 10:06:51;;;;;;;1.03;0.73;;;;;;;;;;5037396;28;93671;-48
2022/07/30 10:09:26;;;;;;;1.23;0.90;;;;;;;;;;5041940;28;92115;-48
2022/07/30 10:11:55;;;;;;;0.77;0.77;;;;;;;;;;5041400;28;91919;-48
2022/07/30 10:14:23;;;;;;;0.87;0.80;;;;;;;;;;5040857;28;93469;-48
2022/07/30 10:17:01;;;;;;;2.63;1.20;;;;;;;;;;5040404;28;92705;-48
2022/07/30 10:19:30;;;;;;;1.07;0.80;;;;;;;;;;5041438;28;92006;-49
2022/07/30 10:22:09;;;;;;;1.30;1.20;;;;;;;;;;5041933;28;91229;-48
2022/07/30 10:24:38;;;;;;;1.20;1.10;;;;;;;;;;5041391;28;94129;-48
2022/07/30 10:27:07;;;;;;;1.63;1.27;;;;;;;;;;5041059;28;92886;-49
2022/07/30 10:29:35;;;;;;;3.07;1.50;;;;;;;;;;5040914;28;92978;-48
2022/07/30 10:32:11;;;;;;;1.27;1.17;;;;;;;;;;5041312;28;91917;-49
2022/07/30 10:34:40;;;;;;;3.10;1.50;;;;;;;;;;5040402;28;94263;-49
2022/07/30 10:37:09;;;;;;;1.63;1.20;;;;;;;;;;5040592;28;93864;-49
2022/07/30 10:39:40;;;;;;;3.17;1.73;;;;;;;;;;5040389;28;91882;-48
2022/07/30 10:42:12;;;;;;;2.30;1.20;;;;;;;;;;5038241;28;92166;-49
2022/07/30 10:44:54;;;;;;;1.77;1.20;;;;;;;;;;5037250;28;94336;-50
2022/07/30 10:47:24;;;;;;;3.77;1.80;;;;;;;;;;5037623;28;92751;-49
2022/07/30 10:50:08;;;;;;;3.17;1.60;;;;;;;;;;5039199;28;92542;-49
2022/07/30 10:52:45;;;;;;;3.07;1.50;;;;;;;;;;5039243;28;92032;-49
2022/07/30 10:55:14;;;;;;;2.07;1.33;;;;;;;;;;5038858;28;95167;-49
2022/07/30 10:58:00;;;;;;;2.97;1.83;;;;;;;;;;5040127;28;94580;-49
2022/07/30 11:00:29;;;;;;;4.70;2.20;;;;;;;;;;5040683;28;92215;-49
2022/07/30 11:03:15;;;;;;;3.10;1.97;;;;;;;;;;5040385;28;92150;-50
2022/07/30 11:05:43;;;;;;;3.47;2.20;;;;;;;;;;5040501;28;94206;-49
2022/07/30 11:08:35;;;;;;;3.27;2.20;;;;;;;;;;5039800;28;92024;-49
2022/07/30 11:11:04;;;;;;;3.23;2.10;;;;;;;;;;5040267;27;92681;-49
2022/07/30 11:13:53;;;;;;;5.00;2.90;;;;;;;;;;5040480;28;91355;-49
2022/07/30 11:16:22;;;;;;;3.90;2.77;;;;;;;;;;5039154;28;93092;-49
2022/07/30 11:19:10;;;;;;;3.70;2.67;;;;;;;;;;5039561;28;92050;-48
2022/07/30 11:22:17;;;;;;;3.93;2.63;;;;;;;;;;5038966;28;93057;-49
2022/07/30 11:24:46;;;;;;;3.83;2.30;;;;;;;;;;5039313;28;91911;-49
2022/07/30 11:27:31;;;;;;;3.17;2.33;;;;;;;;;;5038406;28;92399;-49
2022/07/30 11:30:03;;;;;;;3.83;2.40;;;;;;;;;;5039320;28;93968;-49
2022/07/30 11:32:32;;;;;;;5.07;3.00;;;;;;;;;;5039440;28;91931;-49
2022/07/30 11:35:13;;;;;;;5.47;3.80;;;;;;;;;;5039430;28;91916;-49
2022/07/30 11:38:00;;;;;;;6.87;4.10;;;;;;;;;;5039621;28;94172;-49
2022/07/30 11:40:29;;;;;;;8.63;5.77;;;;;;;;;;5040038;28;93933;-49
2022/07/30 11:43:20;;;;;;;7.97;4.80;;;;;;;;;;5039930;28;91772;-49
2022/07/30 11:46:05;;;;;;;9.50;6.30;;;;;;;;;;5038665;28;92310;-50
2022/07/30 11:48:33;;;;;;;12.37;6.67;;;;;;;;;;5037347;28;95189;-49
2022/07/30 11:51:03;;;;;;;10.97;6.87;;;;;;;;;;5036949;28;94806;-50
2022/07/30 11:53:32;;;;;;;8.83;6.20;;;;;;;;;;5037958;28;92127;-49
2022/07/30 11:56:02;;;;;;;13.03;7.40;;;;;;;;;;5037685;28;92086;-51
2022/07/30 11:58:31;;;;;;;12.53;7.80;;;;;;;;;;5037750;28;94148;-50
2022/07/30 12:01:00;;;;;;;11.20;6.47;;;;;;;;;;5037465;28;93890;-51
2022/07/30 12:03:30;;;;;;;14.10;7.57;;;;;;;;;;5037799;28;92092;-49
2022/07/30 12:06:05;;;;;;;9.93;6.87;;;;;;;;;;5037930;28;91252;-49
2022/07/30 12:08:40;;;;;;;10.47;6.87;;;;;;;;;;5035774;28;94367;-50
2022/07/30 12:11:08;;;;;;;12.27;7.07;;;;;;;;;;5031991;28;93845;-50
2022/07/30 12:13:36;;;;;;;10.47;6.90;;;;;;;;;;5036923;28;93102;-50
2022/07/30 12:16:12;;;;;;;10.83;6.97;;;;;;;;;;5035460;28;92062;-50
2022/07/30 12:18:40;;;;;;;11.80;6.93;;;;;;;;;;5036986;28;93153;-49
2022/07/30 12:21:14;;;;;;;13.97;7.67;;;;;;;;;;5036900;28;92897;-50
2022/07/30 12:23:42;;;;;;;7.87;5.90;;;;;;;;;;5036530;28;92180;-51
2022/07/30 12:26:20;;;;;;;10.63;6.67;;;;;;;;;;5036238;28;92208;-50
2022/07/30 12:28:48;;;;;;;10.67;7.27;;;;;;;;;;5033932;28;92111;-50
2022/07/30 12:31:17;;;;;;;9.53;5.80;;;;;;;;;;5036930;28;94147;-49
2022/07/30 12:33:45;;;;;;;9.17;6.43;;;;;;;;;;5029226;28;92084;-49
2022/07/30 12:36:25;;;;;;;8.30;6.03;;;;;;;;;;5038777;28;92100;-49
2022/07/30 12:38:55;;;;;;;12.37;6.87;;;;;;;;;;5037757;28;94206;-49
2022/07/30 12:41:23;;;;;;;12.70;7.00;;;;;;;;;;5037886;28;94914;-49
2022/07/30 12:43:52;;;;;;;9.90;6.43;;;;;;;;;;5037886;28;92499;-49
2022/07/30 12:46:21;;;;;;;10.10;6.37;;;;;;;;;;5038830;28;92064;-49
2022/07/30 12:48:53;;;;;;;10.77;6.47;;;;;;;;;;5037825;28;93227;-50
2022/07/30 12:51:22;;;;;;;10.17;6.20;;;;;;;;;;5037751;28;93771;-49
2022/07/30 12:53:52;;;;;;;9.53;6.60;;;;;;;;;;5038692;28;92127;-49
2022/07/30 12:56:21;;;;;;;8.63;5.93;;;;;;;;;;5039162;28;91455;-49
2022/07/30 12:58:49;;;;;;;7.40;5.73;;;;;;;;;;5037987;28;94254;-50
2022/07/30 13:01:18;;;;;;;7.80;5.63;;;;;;;;;;5037769;28;93902;-49
2022/07/30 13:03:46;;;;;;;6.60;5.20;;;;;;;;;;5038168;28;93331;-50
2022/07/30 13:06:15;;;;;;;7.77;5.53;;;;;;;;;;5038509;28;92042;-50
2022/07/30 13:08:47;;;;;;;5.93;4.50;;;;;;;;;;5038287;28;94183;-49
2022/07/30 13:11:16;;;;;;;9.00;5.23;;;;;;;;;;5037962;28;93923;-50
2022/07/30 13:13:45;;;;;;;7.70;5.27;;;;;;;;;;5038501;28;91963;-50
2022/07/30 13:16:13;;;;;;;7.60;5.60;;;;;;;;;;5038260;28;91922;-50
2022/07/30 13:18:41;;;;;;;10.50;5.83;;;;;;;;;;5037836;28;93251;-49
2022/07/30 13:21:10;;;;;;;7.17;4.77;;;;;;;;;;5038435;28;94038;-49
2022/07/30 13:23:38;;;;;;;8.50;5.47;;;;;;;;;;5038460;28;92040;-49
2022/07/30 13:26:07;;;;;;;9.57;4.73;;;;;;;;;;5037677;28;92033;-51
2022/07/30 13:28:37;;;;;;;6.57;4.43;;;;;;;;;;5037180;28;95143;-50
2022/07/30 13:31:06;;;;;;;7.63;4.83;;;;;;;;;;5037414;28;94823;-50
2022/07/30 13:33:34;;;;;;;6.67;3.80;;;;;;;;;;5038117;28;92096;-49
2022/07/30 13:36:02;;;;;;;7.37;4.33;;;;;;;;;;5041280;27;92155;-49
2022/07/30 13:38:31;;;;;;;5.80;4.33;;;;;;;;;;5040950;28;94293;-49
2022/07/30 13:40:59;;;;;;;6.20;4.20;;;;;;;;;;5041233;28;94000;-49
2022/07/30 13:43:30;;;;;;;7.47;3.90;;;;;;;;;;5041034;28;92044;-49
2022/07/30 13:46:02;;;;;;;7.23;4.20;;;;;;;;;;5041252;28;91317;-50
2022/07/30 13:48:31;;;;;;;6.20;4.03;;;;;;;;;;5040948;28;94331;-49
2022/07/30 13:51:00;;;;;;;7.67;4.30;;;;;;;;;;5040088;28;94039;-49
2022/07/30 13:53:28;;;;;;;7.73;3.90;;;;;;;;;;5040540;28;92975;-49
2022/07/30 13:55:58;;;;;;;4.80;3.50;;;;;;;;;;5033069;28;92233;-50
2022/07/30 13:58:26;;;;;;;4.13;3.20;;;;;;;;;;5041039;28;94167;-49
2022/07/30 14:00:55;;;;;;;4.53;3.23;;;;;;;;;;5034628;28;94186;-51
2022/07/30 14:03:25;;;;;;;5.07;3.00;;;;;;;;;;5031895;28;92273;-49
2022/07/30 14:05:53;;;;;;;5.37;3.07;;;;;;;;;;5040751;28;91890;-50
2022/07/30 14:08:21;;;;;;;3.20;2.30;;;;;;;;;;5040408;28;93622;-51
2022/07/30 14:10:50;;;;;;;5.20;2.80;;;;;;;;;;5027718;28;93299;-51
2022/07/30 14:13:18;;;;;;;5.63;2.10;;;;;;;;;;5030592;28;92009;-50
2022/07/30 14:15:48;;;;;;;3.50;2.70;;;;;;;;;;5025774;28;92093;-50
2022/07/30 14:18:17;;;;;;;6.33;2.33;;;;;;;;;;5020416;28;95591;-51
2022/07/30 14:20:48;;;;;;;4.20;2.60;;;;;;;;;;5020192;28;94758;-50
2022/07/30 14:23:16;;;;;;;3.43;2.50;;;;;;;;;;5021195;28;92061;-49
2022/07/30 14:25:45;;;;;;;4.67;2.53;;;;;;;;;;5017384;28;92045;-51
2022/07/30 14:28:13;;;;;;;3.03;2.47;;;;;;;;;;5015774;28;93196;-50
2022/07/30 14:30:42;;;;;;;2.93;2.37;;;;;;;;;;5022406;28;93929;-51
2022/07/30 14:33:10;;;;;;;3.47;2.27;;;;;;;;;;5018376;28;94227;-51
2022/07/30 14:35:39;;;;;;;6.83;2.73;;;;;;;;;;5020749;28;92199;-51
2022/07/30 14:38:09;;;;;;;4.70;2.27;;;;;;;;;;5019257;28;93298;-49
2022/07/30 14:40:37;;;;;;;3.27;2.27;;;;;;;;;;5015885;28;93342;-50
2022/07/30 14:43:06;;;;;;;4.53;2.90;;;;;;;;;;5019981;28;93206;-49
2022/07/30 14:45:35;;;;;;;4.87;2.70;;;;;;;;;;5027867;28;92220;-50
2022/07/30 14:48:03;;;;;;;11.17;2.93;;;;;;;;;;5020903;28;95528;-49
2022/07/30 14:50:32;;;;;;;4.57;2.90;;;;;;;;;;5023102;28;94111;-50
2022/07/30 14:53:00;;;;;;;5.73;3.07;;;;;;;;;;5019759;28;93898;-49
2022/07/30 14:55:30;;;;;;;3.53;2.20;;;;;;;;;;5040602;28;92045;-49
2022/07/30 14:57:58;;;;;;;7.10;2.80;;;;;;;;;;5036771;28;94246;-49
2022/07/30 15:00:26;;;;;;;3.80;2.60;;;;;;;;;;5023676;28;92748;-49